createdAt,value
2019-04-02T00:01:20.465Z,10.43
2019-04-02T00:04:11.603Z,9.93
2019-04-02T00:07:01.345Z,7.00
2019-04-02T00:09:50.666Z,18.40
2019-04-02T00:12:42.225Z,9.57
2019-04-02T00:15:32.564Z,8.63
2019-04-02T00:18:23.609Z,11.80
2019-04-02T00:21:14.598Z,11.57
2019-04-02T00:24:04.344Z,27.70
2019-04-02T00:26:55.445Z,29.53
2019-04-02T00:29:46.360Z,18.47
2019-04-02T00:32:36.625Z,8.27
2019-04-02T00:35:26.433Z,13.03
2019-04-02T00:38:17.864Z,13.87
2019-04-02T00:41:08.825Z,18.60
2019-04-02T00:43:57.864Z,10.53
2019-04-02T00:46:49.130Z,20.90
2019-04-02T00:49:38.985Z,13.97
2019-04-02T00:52:29.404Z,8.33
2019-04-02T00:55:19.284Z,27.77
2019-04-02T00:58:10.004Z,20.33
2019-04-02T01:01:00.510Z,29.53
2019-04-02T01:03:50.265Z,18.40
2019-04-02T01:06:40.845Z,16.90
2019-04-02T01:09:30.949Z,26.00
2019-04-02T01:12:21.265Z,50.03
2019-04-02T01:15:11.865Z,52.13
2019-04-02T01:18:02.264Z,60.70
2019-04-02T01:20:52.905Z,33.03
2019-04-02T01:23:42.486Z,12.80
2019-04-02T01:26:33.003Z,12.23
2019-04-02T01:29:22.760Z,14.73
2019-04-02T01:32:13.108Z,15.80
2019-04-02T01:35:03.765Z,8.33
2019-04-02T01:37:53.685Z,11.57
2019-04-02T01:40:45.864Z,10.17
2019-04-02T01:43:36.105Z,6.90
2019-04-02T01:46:27.746Z,12.70
2019-04-02T01:49:17.025Z,13.20
2019-04-02T01:52:07.084Z,9.87
2019-04-02T01:54:57.176Z,12.13
2019-04-02T01:57:50.007Z,12.27
2019-04-02T02:04:43.192Z,15.87
2019-04-02T02:07:35.125Z,7.97
2019-04-02T02:10:25.265Z,13.17
2019-04-02T02:13:15.824Z,7.97
2019-04-02T02:16:05.581Z,10.93
2019-04-02T02:18:55.785Z,12.20
2019-04-02T02:21:47.106Z,9.07
2019-04-02T02:24:38.242Z,14.03
2019-04-02T02:27:28.825Z,12.37
2019-04-02T02:30:19.052Z,10.27
2019-04-02T02:33:09.578Z,11.83
2019-04-02T02:36:00.453Z,9.87
2019-04-02T02:38:50.984Z,10.67
2019-04-02T02:42:12.360Z,11.10
2019-04-02T02:45:04.097Z,10.93
2019-04-02T02:47:53.942Z,7.80
2019-04-02T02:50:49.043Z,10.73
2019-04-02T02:53:39.286Z,6.60
2019-04-02T02:56:29.525Z,8.43
2019-04-02T02:59:20.365Z,9.77
2019-04-02T03:02:10.970Z,14.13
2019-04-02T03:05:01.718Z,11.00
2019-04-02T03:07:52.767Z,14.43
2019-04-02T03:10:43.314Z,8.50
2019-04-02T03:13:37.184Z,9.13
2019-04-02T03:16:25.786Z,12.43
2019-04-02T03:19:15.618Z,12.07
2019-04-02T03:22:07.545Z,11.83
2019-04-02T03:24:57.527Z,6.07
2019-04-02T03:27:47.506Z,4.60
2019-04-02T03:30:37.867Z,6.57
2019-04-02T03:33:28.093Z,8.87
2019-04-02T03:36:18.665Z,5.47
2019-04-02T03:39:10.576Z,4.50
2019-04-02T03:42:01.246Z,4.17
2019-04-02T03:44:51.812Z,5.30
2019-04-02T03:47:44.023Z,7.93
2019-04-02T03:50:33.455Z,5.40
2019-04-02T03:53:24.183Z,3.67
2019-04-02T03:56:14.646Z,3.60
2019-04-02T03:59:05.076Z,5.37
2019-04-02T04:02:00.561Z,6.80
2019-04-02T04:04:47.786Z,11.03
2019-04-02T04:07:40.970Z,4.67
2019-04-02T04:11:05.107Z,6.20
2019-04-02T04:13:55.746Z,6.93
2019-04-02T04:16:48.236Z,5.37
2019-04-02T04:19:38.301Z,8.10
2019-04-02T04:22:28.247Z,4.53
2019-04-02T04:25:18.344Z,10.40
2019-04-02T04:28:08.947Z,6.57
2019-04-02T04:30:59.285Z,5.73
2019-04-02T04:33:49.405Z,6.10
2019-04-02T04:36:41.086Z,7.50
2019-04-02T04:39:32.261Z,6.60
2019-04-02T04:42:23.126Z,8.03
2019-04-02T04:45:13.706Z,5.97
2019-04-02T04:48:03.766Z,4.67
2019-04-02T04:50:53.526Z,11.20
2019-04-02T04:53:43.839Z,4.33
2019-04-02T04:56:35.715Z,6.13
2019-04-02T04:59:25.266Z,10.07
2019-04-02T05:02:50.945Z,4.57
2019-04-02T05:05:41.846Z,7.23
2019-04-02T05:08:33.027Z,3.80
2019-04-02T05:11:23.225Z,4.60
2019-04-02T05:14:16.732Z,4.93
2019-04-02T05:17:05.375Z,4.17
2019-04-02T05:19:55.226Z,9.20
2019-04-02T05:22:45.785Z,6.77
2019-04-02T05:25:36.742Z,7.67
2019-04-02T05:28:26.528Z,8.47
2019-04-02T05:31:16.565Z,4.97
2019-04-02T05:34:06.806Z,11.30
2019-04-02T05:37:00.122Z,6.13
2019-04-02T05:39:50.587Z,7.17
2019-04-02T05:42:41.786Z,7.20
2019-04-02T05:45:31.947Z,9.13
2019-04-02T05:48:22.865Z,6.27
2019-04-02T05:51:13.106Z,18.30
2019-04-02T05:54:03.306Z,6.50
2019-04-02T05:56:54.485Z,7.07
2019-04-02T05:59:44.465Z,9.73
2019-04-02T06:02:34.505Z,6.80
2019-04-02T06:05:25.145Z,6.27
2019-04-02T06:08:15.787Z,12.17
2019-04-02T06:11:06.185Z,6.17
2019-04-02T06:13:56.325Z,17.40
2019-04-02T06:16:47.034Z,5.07
2019-04-02T06:19:47.053Z,6.80
2019-04-02T06:22:29.625Z,6.60
2019-04-02T06:25:20.305Z,6.23
2019-04-02T06:28:10.379Z,7.47
2019-04-02T06:31:00.185Z,9.17
2019-04-02T06:33:50.165Z,7.10
2019-04-02T06:36:40.105Z,10.13
2019-04-02T06:39:30.625Z,5.03
2019-04-02T06:42:20.682Z,5.07
2019-04-02T06:45:12.405Z,6.77
2019-04-02T06:48:09.265Z,6.70
2019-04-02T06:50:59.250Z,11.03
2019-04-02T06:53:49.466Z,9.47
2019-04-02T06:56:38.825Z,6.70
2019-04-02T06:59:30.170Z,9.53
2019-04-02T07:02:21.648Z,7.50
2019-04-02T07:05:12.854Z,5.77
2019-04-02T07:08:03.150Z,10.43
2019-04-02T07:10:54.156Z,8.40
2019-04-02T07:13:45.799Z,10.43
2019-04-02T07:16:36.058Z,8.00
2019-04-02T07:19:26.344Z,8.57
2019-04-02T07:22:16.486Z,5.07
2019-04-02T07:25:08.882Z,7.85
2019-04-02T07:27:59.748Z,7.40
2019-04-02T07:30:50.008Z,9.63
2019-04-02T07:33:40.265Z,8.57
2019-04-02T07:36:32.246Z,12.83
2019-04-02T07:39:22.326Z,18.97
2019-04-02T07:42:12.984Z,10.30
2019-04-02T07:45:05.064Z,5.57
2019-04-02T07:47:55.704Z,7.67
2019-04-02T07:50:46.186Z,5.77
2019-04-02T07:53:36.725Z,9.17
2019-04-02T07:56:27.179Z,8.50
2019-04-02T07:59:17.009Z,11.83
2019-04-02T08:02:08.820Z,10.17
2019-04-02T08:04:58.647Z,7.40
2019-04-02T08:07:48.891Z,6.30
2019-04-02T08:10:39.786Z,6.30
2019-04-02T08:13:29.668Z,7.00
2019-04-02T08:16:20.565Z,6.13
2019-04-02T08:19:10.765Z,11.50
2019-04-02T08:22:01.685Z,8.63
2019-04-02T08:24:51.685Z,5.37
2019-04-02T08:27:42.253Z,14.90
2019-04-02T08:30:33.485Z,5.03
2019-04-02T08:33:24.607Z,9.53
2019-04-02T08:36:14.532Z,13.30
2019-04-02T08:39:07.228Z,10.03
2019-04-02T08:41:58.349Z,7.47
2019-04-02T08:44:50.560Z,7.33
2019-04-02T08:47:40.737Z,11.77
2019-04-02T08:50:30.804Z,14.97
2019-04-02T08:53:21.154Z,6.87
2019-04-02T08:56:11.965Z,13.73
2019-04-02T08:59:01.846Z,9.37
2019-04-02T09:01:52.441Z,14.93
2019-04-02T09:04:42.548Z,6.00
2019-04-02T09:07:33.303Z,11.90
2019-04-02T09:10:25.099Z,10.20
2019-04-02T09:13:15.648Z,11.93
2019-04-02T09:16:07.985Z,11.93
2019-04-02T09:18:58.167Z,6.80
2019-04-02T09:21:47.914Z,7.27
2019-04-02T09:24:38.885Z,7.50
2019-04-02T09:27:28.411Z,16.07
2019-04-02T09:30:19.604Z,6.73
2019-04-02T09:33:09.844Z,9.85
2019-04-02T09:36:02.181Z,7.70
2019-04-02T09:38:53.100Z,14.80
2019-04-02T09:41:43.205Z,8.00
2019-04-02T09:44:34.045Z,5.83
2019-04-02T09:47:24.086Z,10.17
2019-04-02T09:50:14.405Z,11.07
2019-04-02T09:53:05.751Z,6.40
2019-04-02T09:55:58.970Z,9.47
2019-04-02T09:58:49.405Z,6.77
2019-04-02T10:01:38.901Z,6.87
2019-04-02T10:04:28.587Z,7.50
2019-04-02T10:07:19.528Z,7.37
2019-04-02T10:10:13.899Z,6.65
2019-04-02T10:13:02.834Z,7.83
2019-04-02T10:15:55.106Z,15.30
2019-04-02T10:18:45.303Z,8.17
2019-04-02T10:21:37.066Z,4.50
2019-04-02T10:24:27.285Z,6.80
2019-04-02T10:27:17.565Z,10.27
2019-04-02T10:30:11.285Z,11.90
2019-04-02T10:33:01.545Z,4.37
2019-04-02T10:35:53.696Z,9.13
2019-04-02T10:38:44.011Z,11.22
2019-04-02T10:41:34.346Z,8.98
2019-04-02T10:44:24.725Z,7.22
2019-04-02T10:47:15.465Z,9.00
2019-04-02T10:50:05.865Z,13.70
2019-04-02T10:52:56.586Z,8.03
2019-04-02T10:55:47.290Z,5.47
2019-04-02T10:58:37.526Z,8.25
2019-04-02T11:01:27.153Z,11.00
2019-04-02T11:04:16.866Z,6.97
2019-04-02T11:07:10.255Z,8.10
2019-04-02T11:10:00.726Z,6.75
2019-04-02T11:12:50.878Z,6.28
2019-04-02T11:15:40.885Z,6.78
2019-04-02T11:18:31.126Z,4.40
2019-04-02T11:21:21.214Z,6.87
2019-04-02T11:24:11.285Z,10.60
2019-04-02T11:27:02.484Z,6.45
2019-04-02T11:29:52.585Z,9.88
2019-04-02T11:32:42.542Z,7.30
2019-04-02T11:35:33.207Z,8.78
2019-04-02T11:38:23.325Z,7.67
2019-04-02T11:41:14.071Z,8.20
2019-04-02T11:44:06.190Z,9.73
2019-04-02T11:46:56.084Z,9.38
2019-04-02T11:49:46.666Z,8.18
2019-04-02T11:52:39.090Z,9.20
2019-04-02T11:55:28.829Z,7.60
2019-04-02T11:58:18.968Z,12.82
2019-04-02T12:01:08.814Z,9.55
2019-04-02T12:04:09.583Z,6.12
2019-04-02T12:06:50.687Z,19.23
2019-04-02T12:09:45.090Z,9.30
2019-04-02T12:12:33.766Z,8.13
2019-04-02T12:15:34.797Z,6.67
2019-04-02T12:18:16.110Z,9.98
2019-04-02T12:21:06.669Z,10.23
2019-04-02T12:23:56.784Z,12.00
2019-04-02T12:26:47.079Z,15.15
2019-04-02T12:29:37.067Z,10.15
2019-04-02T12:32:27.020Z,8.40
2019-04-02T12:35:16.945Z,7.70
2019-04-02T12:38:06.917Z,10.13
2019-04-02T12:40:57.405Z,8.48
2019-04-02T12:43:47.982Z,9.20
2019-04-02T12:46:39.785Z,8.28
2019-04-02T12:49:29.408Z,9.55
2019-04-02T12:52:20.007Z,5.70
2019-04-02T12:55:09.553Z,9.48
2019-04-02T12:58:01.385Z,15.45
2019-04-02T13:00:52.287Z,14.95
2019-04-02T13:03:42.713Z,12.78
2019-04-02T13:06:34.246Z,13.08
2019-04-02T13:09:24.565Z,16.80
2019-04-02T13:12:14.145Z,11.97
2019-04-02T13:15:04.403Z,22.17
2019-04-02T13:17:54.366Z,9.63
2019-04-02T13:20:45.226Z,12.23
2019-04-02T13:23:35.465Z,9.73
2019-04-02T13:26:26.006Z,14.63
2019-04-02T13:29:15.985Z,11.45
2019-04-02T13:32:06.645Z,6.72
2019-04-02T13:34:57.646Z,8.15
2019-04-02T13:37:47.550Z,7.78
2019-04-02T13:40:37.545Z,8.18
2019-04-02T13:43:29.074Z,10.75
2019-04-02T13:46:20.598Z,7.72
2019-04-02T13:49:10.402Z,14.87
2019-04-02T13:52:02.768Z,9.03
2019-04-02T13:54:52.027Z,9.40
2019-04-02T13:57:42.007Z,11.25
2019-04-02T14:01:10.827Z,7.40
2019-04-02T14:04:02.366Z,12.75
2019-04-02T14:06:52.626Z,8.90
2019-04-02T14:09:43.485Z,9.68
2019-04-02T14:12:33.334Z,8.70
2019-04-02T14:15:23.745Z,11.90
2019-04-02T14:18:13.965Z,9.10
2019-04-02T14:21:13.413Z,10.25
2019-04-02T14:23:56.106Z,11.93
2019-04-02T14:26:46.986Z,9.25
2019-04-02T14:29:36.705Z,9.75
2019-04-02T14:32:27.285Z,8.50
2019-04-02T14:35:17.130Z,8.93
2019-04-02T14:38:07.784Z,12.00
2019-04-02T14:40:58.421Z,12.80
2019-04-02T14:43:49.344Z,9.35
2019-04-02T14:46:39.187Z,8.68
2019-04-02T14:49:29.209Z,7.15
2019-04-02T14:52:19.035Z,10.95
2019-04-02T14:55:09.292Z,10.35
2019-04-02T14:58:02.041Z,8.90
2019-04-02T15:00:52.242Z,10.38
2019-04-02T15:03:42.313Z,10.28
2019-04-02T15:06:32.086Z,5.90
2019-04-02T15:09:21.504Z,10.50
2019-04-02T15:12:11.376Z,7.22
2019-04-02T15:15:01.349Z,8.30
2019-04-02T15:17:52.365Z,8.80
2019-04-02T15:20:42.832Z,8.50
2019-04-02T15:23:32.566Z,8.30
2019-04-02T15:26:23.353Z,8.35
2019-04-02T15:29:13.372Z,9.10
2019-04-02T15:32:03.386Z,6.77
2019-04-02T15:34:53.245Z,16.53
2019-04-02T15:37:44.524Z,8.47
2019-04-02T15:40:34.746Z,11.60
2019-04-02T15:43:25.924Z,7.57
2019-04-02T15:46:16.129Z,12.17
2019-04-02T15:49:06.425Z,7.10
2019-04-02T15:51:57.655Z,8.07
2019-04-02T15:54:48.286Z,11.63
2019-04-02T15:57:38.966Z,10.47
2019-04-02T16:00:29.875Z,9.03
2019-04-02T16:03:20.946Z,7.10
2019-04-02T16:06:11.979Z,7.33
2019-04-02T16:09:03.386Z,11.87
2019-04-02T16:29:55.838Z,6.30
2019-04-02T16:32:46.454Z,10.40
2019-04-02T16:35:36.738Z,6.63
2019-04-02T16:38:26.484Z,12.53
2019-04-02T16:41:17.320Z,13.13
2019-04-02T16:44:07.922Z,9.83
2019-04-02T16:46:58.996Z,8.47
2019-04-02T16:49:49.234Z,7.90
2019-04-02T16:52:39.879Z,13.50
2019-04-02T16:55:31.353Z,8.03
2019-04-02T16:58:21.574Z,10.17
2019-04-02T17:01:12.103Z,9.07
2019-04-02T17:04:07.735Z,12.83
2019-04-02T17:06:58.881Z,18.73
2019-04-02T17:09:50.116Z,7.60
2019-04-02T17:12:40.418Z,9.47
2019-04-02T17:15:30.644Z,10.67
2019-04-02T17:18:21.535Z,8.20
2019-04-02T17:21:11.824Z,7.47
2019-04-02T17:24:02.525Z,8.83
2019-04-02T17:26:55.028Z,11.07
2019-04-02T17:29:45.048Z,19.90
2019-04-02T17:32:35.113Z,16.27
2019-04-02T17:35:25.775Z,7.37
2019-04-02T17:38:16.576Z,13.43
2019-04-02T17:41:07.134Z,12.97
2019-04-02T17:43:57.574Z,9.30
2019-04-02T17:46:47.607Z,9.67
2019-04-02T17:49:39.057Z,6.97
2019-04-02T17:52:31.148Z,8.40
2019-04-02T17:55:21.364Z,7.83
2019-04-02T17:58:12.374Z,10.63
2019-04-02T18:01:04.391Z,11.07
2019-04-02T18:03:54.955Z,11.87
2019-04-02T18:06:45.357Z,11.33
2019-04-02T18:09:36.099Z,5.93
2019-04-02T18:12:27.703Z,13.83
2019-04-02T18:15:17.774Z,9.70
2019-04-02T18:18:08.564Z,11.23
2019-04-02T18:20:58.974Z,10.00
2019-04-02T18:23:49.434Z,10.77
2019-04-02T18:26:39.454Z,6.87
2019-04-02T18:29:29.667Z,9.30
2019-04-02T18:32:20.558Z,11.33
2019-04-02T18:35:11.015Z,7.23
2019-04-02T18:38:01.474Z,11.17
2019-04-02T18:40:53.978Z,8.43
2019-04-02T18:43:44.939Z,9.10
2019-04-02T18:46:42.332Z,10.47
2019-04-02T18:49:33.852Z,8.47
2019-04-02T18:52:24.373Z,7.43
2019-04-02T18:55:48.365Z,6.97
2019-04-02T18:59:00.927Z,6.27
2019-04-02T19:02:11.605Z,9.23
2019-04-02T19:05:01.454Z,10.40
2019-04-02T19:07:54.813Z,13.37
2019-04-02T19:11:11.198Z,8.60
2019-04-02T19:14:07.214Z,7.33
2019-04-02T19:16:57.633Z,10.73
2019-04-02T19:19:49.554Z,7.10
2019-04-02T19:22:43.434Z,8.37
2019-04-02T19:25:38.794Z,7.00
2019-04-02T19:28:32.152Z,9.27
2019-04-02T19:31:25.374Z,9.27
2019-04-02T19:34:18.808Z,9.30
2019-04-02T19:37:15.468Z,8.30
2019-04-02T19:40:08.411Z,11.90
2019-04-02T19:43:07.536Z,6.97
2019-04-02T19:45:52.394Z,12.97
2019-04-02T19:48:43.153Z,9.17
2019-04-02T19:51:34.393Z,8.40
2019-04-02T19:54:25.814Z,8.70
2019-04-02T19:57:15.820Z,8.77
2019-04-02T20:00:07.773Z,13.27
2019-04-02T20:03:00.198Z,12.90
2019-04-02T20:05:50.314Z,11.67
2019-04-02T20:08:41.854Z,10.63
2019-04-02T20:11:33.333Z,7.40
2019-04-02T20:14:24.479Z,10.87
2019-04-02T20:17:16.076Z,7.97
2019-04-02T20:20:08.413Z,9.53
2019-04-02T20:22:58.974Z,9.53
2019-04-02T20:25:49.473Z,7.80
2019-04-02T20:28:39.693Z,13.00
2019-04-02T20:31:30.173Z,11.83
2019-04-02T20:34:23.094Z,7.67
2019-04-02T20:37:12.516Z,7.17
2019-04-02T20:40:03.384Z,7.07
2019-04-02T20:42:53.694Z,6.93
2019-04-02T20:46:02.449Z,7.77
2019-04-02T20:48:53.614Z,8.80
2019-04-02T20:51:44.087Z,7.23
2019-04-02T20:54:34.516Z,8.13
2019-04-02T20:57:25.714Z,9.73
2019-04-02T21:00:16.658Z,11.23
2019-04-02T21:03:07.039Z,10.73
2019-04-02T21:05:58.106Z,10.37
2019-04-02T21:08:50.444Z,9.97
2019-04-02T21:11:40.335Z,20.03
2019-04-02T21:14:30.318Z,13.80
2019-04-02T21:17:21.365Z,13.37
2019-04-02T21:20:14.979Z,17.57
2019-04-02T21:23:05.112Z,10.07
2019-04-02T21:25:55.227Z,10.70
2019-04-02T21:28:46.168Z,8.07
2019-04-02T21:31:36.540Z,8.90
2019-04-02T21:34:37.943Z,8.33
2019-04-02T21:37:18.617Z,6.90
2019-04-02T21:40:09.050Z,14.73
2019-04-02T21:42:59.143Z,9.10
2019-04-02T21:45:49.635Z,8.53
2019-04-02T21:48:39.993Z,7.73
2019-04-02T21:51:30.233Z,14.27
2019-04-02T21:54:20.893Z,9.07
2019-04-02T21:57:12.095Z,10.13
2019-04-02T22:00:02.554Z,10.23
2019-04-02T22:02:54.713Z,11.67
2019-04-02T22:05:45.055Z,9.37
2019-04-02T22:08:35.491Z,10.87
2019-04-02T22:11:26.515Z,9.93
2019-04-02T22:14:16.434Z,11.70
2019-04-02T22:17:06.993Z,10.40
2019-04-02T22:19:57.264Z,9.77
2019-04-02T22:22:47.263Z,7.63
2019-04-02T22:25:37.714Z,13.83
2019-04-02T22:28:28.604Z,11.30
2019-04-02T22:31:18.579Z,7.03
2019-04-02T22:34:12.541Z,11.17
2019-04-02T22:37:01.855Z,7.27
2019-04-02T22:39:52.765Z,12.37
2019-04-02T22:42:44.813Z,13.17
2019-04-02T22:45:35.275Z,10.63
2019-04-02T22:48:25.855Z,12.03
2019-04-02T22:51:17.546Z,9.20
2019-04-02T22:54:08.334Z,14.43
2019-04-02T22:56:58.597Z,7.07
2019-04-02T22:59:49.213Z,10.53
2019-04-02T23:02:40.118Z,9.60
2019-04-02T23:05:32.809Z,9.33
2019-04-02T23:08:23.255Z,8.40
2019-04-02T23:11:13.387Z,5.70
2019-04-02T23:14:04.448Z,11.70
2019-04-02T23:16:55.795Z,8.07
2019-04-02T23:19:46.575Z,16.70
2019-04-02T23:22:37.212Z,9.27
2019-04-02T23:25:28.444Z,7.13
2019-04-02T23:28:19.873Z,12.20
2019-04-02T23:31:10.269Z,17.10
2019-04-02T23:34:01.985Z,6.73
2019-04-02T23:36:52.765Z,10.00
2019-04-02T23:39:43.098Z,9.43
2019-04-02T23:42:33.695Z,9.83
2019-04-02T23:45:24.345Z,8.23
2019-04-02T23:48:15.545Z,7.60
2019-04-02T23:51:06.024Z,10.43
2019-04-02T23:53:57.186Z,11.50
2019-04-02T23:56:48.074Z,11.33
2019-04-02T23:59:38.306Z,12.40
